sensor_id;sensor_type;location;lat;lon;timestamp;pressure;altitude;pressure_sealevel;temperature;humidity
71907;BME280;59781;52.090;5.030;2022-07-10T00:00:53;102831.38;;;15.34;71.32
71907;BME280;59781;52.090;5.030;2022-07-10T00:03:19;102828.09;;;15.31;71.81
71907;BME280;59781;52.090;5.030;2022-07-10T00:05:45;102820.16;;;15.19;72.71
71907;BME280;59781;52.090;5.030;2022-07-10T00:08:12;102822.13;;;15.27;71.83
71907;BME280;59781;52.090;5.030;2022-07-10T00:10:40;102813.63;;;15.12;72.49
71907;BME280;59781;52.090;5.030;2022-07-10T00:13:06;102817.19;;;14.95;72.36
71907;BME280;59781;52.090;5.030;2022-07-10T00:15:32;102817.31;;;14.93;73.80
71907;BME280;59781;52.090;5.030;2022-07-10T00:17:58;102818.75;;;14.70;74.60
71907;BME280;59781;52.090;5.030;2022-07-10T00:20:24;102820.84;;;15.04;72.29
71907;BME280;59781;52.090;5.030;2022-07-10T00:22:50;102820.72;;;15.05;72.06
71907;BME280;59781;52.090;5.030;2022-07-10T00:25:17;102821.25;;;14.81;74.26
71907;BME280;59781;52.090;5.030;2022-07-10T00:27:44;102828.75;;;14.70;75.04
71907;BME280;59781;52.090;5.030;2022-07-10T00:30:12;102826.97;;;14.51;76.34
71907;BME280;59781;52.090;5.030;2022-07-10T00:32:46;102825.91;;;14.61;75.77
71907;BME280;59781;52.090;5.030;2022-07-10T00:35:15;102823.31;;;14.70;74.96
71907;BME280;59781;52.090;5.030;2022-07-10T00:37:51;102821.44;;;14.70;74.87
71907;BME280;59781;52.090;5.030;2022-07-10T00:40:22;102830.34;;;14.62;76.23
71907;BME280;59781;52.090;5.030;2022-07-10T00:43:11;102819.63;;;14.61;76.22
71907;BME280;59781;52.090;5.030;2022-07-10T00:45:50;102824.75;;;14.64;75.16
71907;BME280;59781;52.090;5.030;2022-07-10T00:48:16;102818.03;;;14.68;74.86
71907;BME280;59781;52.090;5.030;2022-07-10T00:50:45;102822.19;;;14.62;75.44
71907;BME280;59781;52.090;5.030;2022-07-10T00:53:13;102815.91;;;14.62;74.96
71907;BME280;59781;52.090;5.030;2022-07-10T00:55:47;102810.69;;;14.41;77.06
71907;BME280;59781;52.090;5.030;2022-07-10T00:58:14;102809.31;;;14.27;78.28
71907;BME280;59781;52.090;5.030;2022-07-10T01:00:43;102801.06;;;14.19;78.77
71907;BME280;59781;52.090;5.030;2022-07-10T01:03:09;102806.22;;;14.13;77.88
71907;BME280;59781;52.090;5.030;2022-07-10T01:05:39;102804.50;;;14.12;78.53
71907;BME280;59781;52.090;5.030;2022-07-10T01:08:05;102802.69;;;13.93;78.92
71907;BME280;59781;52.090;5.030;2022-07-10T01:10:31;102799.69;;;13.86;80.26
71907;BME280;59781;52.090;5.030;2022-07-10T01:12:56;102801.28;;;13.79;80.49
71907;BME280;59781;52.090;5.030;2022-07-10T01:15:22;102806.72;;;13.79;80.87
71907;BME280;59781;52.090;5.030;2022-07-10T01:17:48;102797.44;;;13.82;80.50
71907;BME280;59781;52.090;5.030;2022-07-10T01:20:14;102792.44;;;13.96;80.96
71907;BME280;59781;52.090;5.030;2022-07-10T01:23:07;102800.69;;;13.85;80.62
71907;BME280;59781;52.090;5.030;2022-07-10T01:25:40;102789.03;;;13.75;81.61
71907;BME280;59781;52.090;5.030;2022-07-10T01:28:06;102789.47;;;13.70;81.74
71907;BME280;59781;52.090;5.030;2022-07-10T01:30:31;102785.31;;;13.76;81.05
71907;BME280;59781;52.090;5.030;2022-07-10T01:32:57;102782.34;;;13.79;81.27
71907;BME280;59781;52.090;5.030;2022-07-10T01:35:23;102786.91;;;13.78;81.45
71907;BME280;59781;52.090;5.030;2022-07-10T01:37:49;102784.31;;;13.96;79.84
71907;BME280;59781;52.090;5.030;2022-07-10T01:40:16;102789.28;;;13.91;80.92
71907;BME280;59781;52.090;5.030;2022-07-10T01:42:47;102788.31;;;13.83;80.70
71907;BME280;59781;52.090;5.030;2022-07-10T01:45:12;102792.72;;;13.84;79.50
71907;BME280;59781;52.090;5.030;2022-07-10T01:47:50;102789.84;;;13.95;78.89
71907;BME280;59781;52.090;5.030;2022-07-10T01:50:16;102786.13;;;13.96;79.64
71907;BME280;59781;52.090;5.030;2022-07-10T01:52:45;102783.44;;;13.86;80.45
71907;BME280;59781;52.090;5.030;2022-07-10T01:55:12;102785.75;;;13.81;80.37
71907;BME280;59781;52.090;5.030;2022-07-10T01:57:38;102780.03;;;13.84;80.01
71907;BME280;59781;52.090;5.030;2022-07-10T02:00:05;102781.34;;;13.70;81.67
71907;BME280;59781;52.090;5.030;2022-07-10T02:02:37;102785.06;;;13.69;81.20
71907;BME280;59781;52.090;5.030;2022-07-10T02:05:04;102782.91;;;13.73;80.65
71907;BME280;59781;52.090;5.030;2022-07-10T02:07:30;102780.78;;;13.76;80.36
71907;BME280;59781;52.090;5.030;2022-07-10T02:09:56;102773.94;;;13.72;80.58
71907;BME280;59781;52.090;5.030;2022-07-10T02:12:21;102763.09;;;13.63;81.43
71907;BME280;59781;52.090;5.030;2022-07-10T02:14:47;102773.94;;;13.63;81.37
71907;BME280;59781;52.090;5.030;2022-07-10T02:17:15;102767.97;;;13.59;81.18
71907;BME280;59781;52.090;5.030;2022-07-10T02:19:52;102763.66;;;13.66;81.47
71907;BME280;59781;52.090;5.030;2022-07-10T02:22:43;102761.25;;;13.54;81.82
71907;BME280;59781;52.090;5.030;2022-07-10T02:25:39;102764.97;;;13.43;82.53
71907;BME280;59781;52.090;5.030;2022-07-10T02:28:10;102764.97;;;13.43;82.91
71907;BME280;59781;52.090;5.030;2022-07-10T02:31:00;102765.81;;;13.43;81.97
71907;BME280;59781;52.090;5.030;2022-07-10T02:33:25;102755.13;;;13.52;82.49
71907;BME280;59781;52.090;5.030;2022-07-10T02:35:51;102744.47;;;13.40;81.84
71907;BME280;59781;52.090;5.030;2022-07-10T02:38:17;102757.56;;;13.35;83.06
71907;BME280;59781;52.090;5.030;2022-07-10T02:40:45;102762.72;;;13.38;83.08
71907;BME280;59781;52.090;5.030;2022-07-10T02:43:11;102765.69;;;13.45;83.32
71907;BME280;59781;52.090;5.030;2022-07-10T02:45:38;102763.81;;;13.55;82.48
71907;BME280;59781;52.090;5.030;2022-07-10T02:48:04;102769.22;;;13.65;82.13
71907;BME280;59781;52.090;5.030;2022-07-10T02:50:30;102757.38;;;13.75;82.88
71907;BME280;59781;52.090;5.030;2022-07-10T02:52:55;102757.66;;;13.82;82.60
71907;BME280;59781;52.090;5.030;2022-07-10T02:55:22;102752.66;;;13.97;81.73
71907;BME280;59781;52.090;5.030;2022-07-10T02:57:50;102754.03;;;14.11;81.41
71907;BME280;59781;52.090;5.030;2022-07-10T03:00:15;102756.00;;;14.18;81.10
71907;BME280;59781;52.090;5.030;2022-07-10T03:02:47;102759.56;;;14.19;81.10
71907;BME280;59781;52.090;5.030;2022-07-10T03:05:13;102755.03;;;14.10;80.75
71907;BME280;59781;52.090;5.030;2022-07-10T03:07:41;102766.97;;;14.26;80.35
71907;BME280;59781;52.090;5.030;2022-07-10T03:10:07;102760.34;;;14.39;79.13
71907;BME280;59781;52.090;5.030;2022-07-10T03:12:42;102763.22;;;14.37;79.72
71907;BME280;59781;52.090;5.030;2022-07-10T03:15:08;102765.19;;;14.35;80.23
71907;BME280;59781;52.090;5.030;2022-07-10T03:17:37;102773.19;;;14.37;79.40
71907;BME280;59781;52.090;5.030;2022-07-10T03:20:03;102757.91;;;14.45;78.93
71907;BME280;59781;52.090;5.030;2022-07-10T03:22:29;102750.13;;;14.60;78.33
71907;BME280;59781;52.090;5.030;2022-07-10T03:24:56;102765.75;;;14.48;78.63
71907;BME280;59781;52.090;5.030;2022-07-10T03:27:31;102761.03;;;14.50;79.12
71907;BME280;59781;52.090;5.030;2022-07-10T03:29:58;102749.13;;;14.61;78.74
71907;BME280;59781;52.090;5.030;2022-07-10T03:32:24;102762.53;;;14.62;79.95
71907;BME280;59781;52.090;5.030;2022-07-10T03:34:50;102758.44;;;14.58;79.28
71907;BME280;59781;52.090;5.030;2022-07-10T03:37:16;102757.38;;;14.69;79.07
71907;BME280;59781;52.090;5.030;2022-07-10T03:39:47;102746.84;;;14.66;80.09
71907;BME280;59781;52.090;5.030;2022-07-10T03:42:14;102743.13;;;14.67;78.99
71907;BME280;59781;52.090;5.030;2022-07-10T03:44:40;102741.78;;;14.71;79.00
71907;BME280;59781;52.090;5.030;2022-07-10T03:47:06;102737.53;;;14.69;79.94
71907;BME280;59781;52.090;5.030;2022-07-10T03:49:32;102738.50;;;14.77;79.23
71907;BME280;59781;52.090;5.030;2022-07-10T03:51:59;102736.00;;;14.84;78.99
71907;BME280;59781;52.090;5.030;2022-07-10T03:54:29;102741.28;;;14.85;78.33
71907;BME280;59781;52.090;5.030;2022-07-10T03:56:56;102738.66;;;14.76;79.14
71907;BME280;59781;52.090;5.030;2022-07-10T03:59:41;102733.44;;;14.82;79.06
71907;BME280;59781;52.090;5.030;2022-07-10T04:02:07;102706.03;;;14.85;80.00
71907;BME280;59781;52.090;5.030;2022-07-10T04:04:33;102720.56;;;14.84;79.54
71907;BME280;59781;52.090;5.030;2022-07-10T04:06:59;102721.91;;;14.98;79.31
71907;BME280;59781;52.090;5.030;2022-07-10T04:09:24;102726.25;;;14.91;79.88
71907;BME280;59781;52.090;5.030;2022-07-10T04:11:50;102720.44;;;14.86;80.63
71907;BME280;59781;52.090;5.030;2022-07-10T04:14:16;102729.28;;;14.88;79.91
71907;BME280;59781;52.090;5.030;2022-07-10T04:16:44;102732.09;;;14.96;80.40
71907;BME280;59781;52.090;5.030;2022-07-10T04:19:09;102723.09;;;14.96;80.79
71907;BME280;59781;52.090;5.030;2022-07-10T04:21:41;102731.44;;;15.02;80.59
71907;BME280;59781;52.090;5.030;2022-07-10T04:24:07;102720.06;;;15.16;78.74
71907;BME280;59781;52.090;5.030;2022-07-10T04:26:33;102728.56;;;15.21;79.65
71907;BME280;59781;52.090;5.030;2022-07-10T04:28:59;102733.31;;;15.19;79.59
71907;BME280;59781;52.090;5.030;2022-07-10T04:31:24;102732.22;;;15.12;80.00
71907;BME280;59781;52.090;5.030;2022-07-10T04:33:50;102723.63;;;15.17;78.80
71907;BME280;59781;52.090;5.030;2022-07-10T04:36:16;102730.28;;;15.23;79.46
71907;BME280;59781;52.090;5.030;2022-07-10T04:38:43;102740.28;;;15.22;79.09
71907;BME280;59781;52.090;5.030;2022-07-10T04:41:10;102743.47;;;15.35;78.32
71907;BME280;59781;52.090;5.030;2022-07-10T04:43:40;102739.34;;;15.49;76.96
71907;BME280;59781;52.090;5.030;2022-07-10T04:46:06;102742.47;;;15.36;79.18
71907;BME280;59781;52.090;5.030;2022-07-10T04:48:32;102737.91;;;15.19;79.17
71907;BME280;59781;52.090;5.030;2022-07-10T04:50:58;102735.41;;;15.26;78.40
71907;BME280;59781;52.090;5.030;2022-07-10T04:53:23;102733.41;;;15.28;78.50
71907;BME280;59781;52.090;5.030;2022-07-10T04:55:51;102739.28;;;15.23;78.83
71907;BME280;59781;52.090;5.030;2022-07-10T04:58:16;102745.09;;;15.28;78.66
71907;BME280;59781;52.090;5.030;2022-07-10T05:00:43;102734.09;;;15.30;78.73
71907;BME280;59781;52.090;5.030;2022-07-10T05:03:09;102738.09;;;15.43;77.75
71907;BME280;59781;52.090;5.030;2022-07-10T05:05:50;102744.34;;;15.36;77.39
71907;BME280;59781;52.090;5.030;2022-07-10T05:08:19;102740.03;;;15.33;78.24
71907;BME280;59781;52.090;5.030;2022-07-10T05:10:56;102747.13;;;15.26;78.43
71907;BME280;59781;52.090;5.030;2022-07-10T05:13:23;102751.63;;;15.35;77.58
71907;BME280;59781;52.090;5.030;2022-07-10T05:15:51;102752.16;;;15.39;77.96
71907;BME280;59781;52.090;5.030;2022-07-10T05:18:17;102750.78;;;15.35;78.68
71907;BME280;59781;52.090;5.030;2022-07-10T05:20:46;102745.09;;;15.46;77.10
71907;BME280;59781;52.090;5.030;2022-07-10T05:23:13;102738.72;;;15.55;76.99
71907;BME280;59781;52.090;5.030;2022-07-10T05:25:59;102742.38;;;15.46;77.33
71907;BME280;59781;52.090;5.030;2022-07-10T05:28:26;102748.34;;;15.67;77.25
71907;BME280;59781;52.090;5.030;2022-07-10T05:31:02;102748.25;;;15.59;78.31
71907;BME280;59781;52.090;5.030;2022-07-10T05:33:28;102749.44;;;15.74;77.26
71907;BME280;59781;52.090;5.030;2022-07-10T05:35:55;102748.09;;;15.78;77.18
71907;BME280;59781;52.090;5.030;2022-07-10T05:38:22;102751.50;;;15.81;77.27
71907;BME280;59781;52.090;5.030;2022-07-10T05:41:14;102741.19;;;15.84;77.61
71907;BME280;59781;52.090;5.030;2022-07-10T05:44:25;102734.94;;;15.92;77.46
71907;BME280;59781;52.090;5.030;2022-07-10T05:46:51;102737.59;;;16.10;75.36
71907;BME280;59781;52.090;5.030;2022-07-10T05:49:39;102731.47;;;16.08;75.44
71907;BME280;59781;52.090;5.030;2022-07-10T05:52:26;102721.66;;;16.15;75.48
71907;BME280;59781;52.090;5.030;2022-07-10T05:54:51;102722.56;;;16.23;74.47
71907;BME280;59781;52.090;5.030;2022-07-10T05:57:18;102734.03;;;16.43;74.24
71907;BME280;59781;52.090;5.030;2022-07-10T05:59:46;102728.13;;;16.56;73.49
71907;BME280;59781;52.090;5.030;2022-07-10T06:02:12;102732.38;;;16.58;73.99
71907;BME280;59781;52.090;5.030;2022-07-10T06:04:39;102733.91;;;16.53;74.91
71907;BME280;59781;52.090;5.030;2022-07-10T06:07:05;102731.19;;;16.61;74.88
71907;BME280;59781;52.090;5.030;2022-07-10T06:09:30;102732.56;;;16.57;74.46
71907;BME280;59781;52.090;5.030;2022-07-10T06:11:59;102720.66;;;16.58;73.99
71907;BME280;59781;52.090;5.030;2022-07-10T06:14:56;102724.56;;;16.55;74.95
71907;BME280;59781;52.090;5.030;2022-07-10T06:18:00;102730.78;;;16.74;73.20
71907;BME280;59781;52.090;5.030;2022-07-10T06:20:26;102729.41;;;16.78;73.87
71907;BME280;59781;52.090;5.030;2022-07-10T06:22:51;102733.00;;;16.86;72.99
71907;BME280;59781;52.090;5.030;2022-07-10T06:25:26;102729.31;;;16.61;73.39
71907;BME280;59781;52.090;5.030;2022-07-10T06:28:19;102734.84;;;16.70;73.31
71907;BME280;59781;52.090;5.030;2022-07-10T06:30:49;102736.06;;;16.75;73.04
71907;BME280;59781;52.090;5.030;2022-07-10T06:33:30;102738.13;;;16.89;73.36
71907;BME280;59781;52.090;5.030;2022-07-10T06:36:19;102731.31;;;16.85;73.86
71907;BME280;59781;52.090;5.030;2022-07-10T06:39:26;102738.94;;;16.74;72.77
71907;BME280;59781;52.090;5.030;2022-07-10T06:41:53;102743.41;;;16.83;72.42
71907;BME280;59781;52.090;5.030;2022-07-10T06:44:56;102743.31;;;16.67;74.67
71907;BME280;59781;52.090;5.030;2022-07-10T06:48:42;102737.16;;;16.56;74.60
71907;BME280;59781;52.090;5.030;2022-07-10T06:51:37;102737.16;;;16.56;74.26
71907;BME280;59781;52.090;5.030;2022-07-10T06:55:12;102736.38;;;16.72;73.31
71907;BME280;59781;52.090;5.030;2022-07-10T06:58:05;102742.38;;;16.84;72.89
71907;BME280;59781;52.090;5.030;2022-07-10T07:00:50;102738.53;;;17.27;70.08
71907;BME280;59781;52.090;5.030;2022-07-10T07:03:48;102742.19;;;16.85;72.56
71907;BME280;59781;52.090;5.030;2022-07-10T07:06:14;102732.19;;;17.10;71.58
71907;BME280;59781;52.090;5.030;2022-07-10T07:08:43;102733.38;;;16.91;72.15
71907;BME280;59781;52.090;5.030;2022-07-10T07:11:08;102739.34;;;17.19;71.59
71907;BME280;59781;52.090;5.030;2022-07-10T07:13:35;102744.50;;;17.23;72.71
71907;BME280;59781;52.090;5.030;2022-07-10T07:16:00;102741.75;;;17.14;71.12
71907;BME280;59781;52.090;5.030;2022-07-10T07:18:30;102742.69;;;16.81;72.14
71907;BME280;59781;52.090;5.030;2022-07-10T07:21:01;102741.25;;;17.11;71.72
71907;BME280;59781;52.090;5.030;2022-07-10T07:23:45;102741.75;;;17.23;71.74
71907;BME280;59781;52.090;5.030;2022-07-10T07:26:11;102730.19;;;17.45;69.69
71907;BME280;59781;52.090;5.030;2022-07-10T07:28:37;102733.06;;;17.60;70.38
71907;BME280;59781;52.090;5.030;2022-07-10T07:31:03;102738.53;;;17.52;70.08
71907;BME280;59781;52.090;5.030;2022-07-10T07:33:29;102741.06;;;17.20;70.52
71907;BME280;59781;52.090;5.030;2022-07-10T07:35:54;102739.34;;;17.19;70.77
71907;BME280;59781;52.090;5.030;2022-07-10T07:38:41;102744.66;;;17.13;71.60
71907;BME280;59781;52.090;5.030;2022-07-10T07:41:30;102740.56;;;17.25;71.04
71907;BME280;59781;52.090;5.030;2022-07-10T07:43:56;102731.41;;;17.42;71.04
71907;BME280;59781;52.090;5.030;2022-07-10T07:46:39;102740.75;;;17.48;70.13
71907;BME280;59781;52.090;5.030;2022-07-10T07:49:25;102744.00;;;17.76;70.76
71907;BME280;59781;52.090;5.030;2022-07-10T07:51:50;102742.88;;;18.18;68.61
71907;BME280;59781;52.090;5.030;2022-07-10T07:54:16;102744.56;;;18.19;68.63
71907;BME280;59781;52.090;5.030;2022-07-10T07:57:47;102748.31;;;18.26;68.67
71907;BME280;59781;52.090;5.030;2022-07-10T08:00:42;102743.28;;;18.46;67.64
71907;BME280;59781;52.090;5.030;2022-07-10T08:03:08;102740.00;;;18.19;66.11
71907;BME280;59781;52.090;5.030;2022-07-10T08:05:37;102745.28;;;18.21;66.91
71907;BME280;59781;52.090;5.030;2022-07-10T08:08:03;102750.63;;;18.45;66.57
71907;BME280;59781;52.090;5.030;2022-07-10T08:10:35;102760.81;;;18.59;67.02
71907;BME280;59781;52.090;5.030;2022-07-10T08:13:27;102762.63;;;18.75;64.34
71907;BME280;59781;52.090;5.030;2022-07-10T08:16:16;102757.53;;;18.64;65.41
71907;BME280;59781;52.090;5.030;2022-07-10T08:18:56;102743.50;;;18.83;64.23
71907;BME280;59781;52.090;5.030;2022-07-10T08:21:45;102742.09;;;19.18;64.57
71907;BME280;59781;52.090;5.030;2022-07-10T08:25:12;102727.56;;;20.46;61.49
71907;BME280;59781;52.090;5.030;2022-07-10T08:28:34;102723.19;;;20.87;58.71
71907;BME280;59781;52.090;5.030;2022-07-10T08:31:04;102725.28;;;20.49;60.08
71907;BME280;59781;52.090;5.030;2022-07-10T08:33:30;102722.22;;;20.00;60.54
71907;BME280;59781;52.090;5.030;2022-07-10T08:35:56;102717.78;;;20.14;60.94
71907;BME280;59781;52.090;5.030;2022-07-10T08:38:25;102726.56;;;20.24;61.14
71907;BME280;59781;52.090;5.030;2022-07-10T08:40:53;102730.78;;;19.82;61.93
71907;BME280;59781;52.090;5.030;2022-07-10T08:46:05;102727.44;;;20.10;62.92
71907;BME280;59781;52.090;5.030;2022-07-10T08:48:32;102722.13;;;20.52;60.36
71907;BME280;59781;52.090;5.030;2022-07-10T08:51:05;102720.91;;;19.96;61.92
71907;BME280;59781;52.090;5.030;2022-07-10T08:53:35;102722.84;;;19.58;61.71
71907;BME280;59781;52.090;5.030;2022-07-10T08:56:05;102732.78;;;19.51;62.96
71907;BME280;59781;52.090;5.030;2022-07-10T08:58:35;102726.81;;;19.70;61.15
71907;BME280;59781;52.090;5.030;2022-07-10T09:01:02;102723.44;;;19.68;61.95
71907;BME280;59781;52.090;5.030;2022-07-10T09:03:52;102728.09;;;20.12;62.57
71907;BME280;59781;52.090;5.030;2022-07-10T09:06:24;102728.56;;;20.96;58.45
71907;BME280;59781;52.090;5.030;2022-07-10T09:09:04;102722.50;;;21.22;59.17
71907;BME280;59781;52.090;5.030;2022-07-10T09:11:32;102713.75;;;20.90;58.74
71907;BME280;59781;52.090;5.030;2022-07-10T09:14:04;102717.75;;;20.73;58.13
71907;BME280;59781;52.090;5.030;2022-07-10T09:16:56;102710.25;;;20.96;58.58
71907;BME280;59781;52.090;5.030;2022-07-10T09:21:53;102712.78;;;20.61;59.40
71907;BME280;59781;52.090;5.030;2022-07-10T09:24:55;102706.78;;;20.87;58.48
71907;BME280;59781;52.090;5.030;2022-07-10T09:28:04;102699.69;;;21.14;58.96
71907;BME280;59781;52.090;5.030;2022-07-10T09:30:37;102698.47;;;21.24;58.64
71907;BME280;59781;52.090;5.030;2022-07-10T09:33:28;102702.69;;;21.41;57.32
71907;BME280;59781;52.090;5.030;2022-07-10T09:41:13;102702.34;;;21.08;58.43
71907;BME280;59781;52.090;5.030;2022-07-10T09:46:42;102692.69;;;21.33;56.25
71907;BME280;59781;52.090;5.030;2022-07-10T09:49:37;102696.09;;;21.35;56.46
71907;BME280;59781;52.090;5.030;2022-07-10T09:52:03;102696.81;;;21.44;57.15
71907;BME280;59781;52.090;5.030;2022-07-10T09:54:29;102690.97;;;21.82;55.15
71907;BME280;59781;52.090;5.030;2022-07-10T09:56:55;102688.53;;;21.37;55.90
71907;BME280;59781;52.090;5.030;2022-07-10T09:59:26;102683.28;;;21.64;57.40
71907;BME280;59781;52.090;5.030;2022-07-10T10:02:07;102677.69;;;22.13;55.22
71907;BME280;59781;52.090;5.030;2022-07-10T10:04:41;102687.03;;;21.63;56.05
71907;BME280;59781;52.090;5.030;2022-07-10T10:07:11;102683.78;;;22.09;54.97
71907;BME280;59781;52.090;5.030;2022-07-10T10:10:01;102682.00;;;22.01;54.61
71907;BME280;59781;52.090;5.030;2022-07-10T10:12:48;102680.91;;;21.61;55.21
71907;BME280;59781;52.090;5.030;2022-07-10T10:15:23;102685.75;;;21.59;54.99
71907;BME280;59781;52.090;5.030;2022-07-10T10:18:17;102692.34;;;21.22;57.12
71907;BME280;59781;52.090;5.030;2022-07-10T10:20:46;102685.06;;;21.29;57.10
71907;BME280;59781;52.090;5.030;2022-07-10T10:23:34;102692.28;;;21.86;54.21
71907;BME280;59781;52.090;5.030;2022-07-10T10:26:00;102685.69;;;22.08;55.42
71907;BME280;59781;52.090;5.030;2022-07-10T10:28:33;102682.84;;;21.67;54.16
71907;BME280;59781;52.090;5.030;2022-07-10T10:31:00;102688.91;;;21.90;54.83
71907;BME280;59781;52.090;5.030;2022-07-10T10:35:59;102680.66;;;21.56;56.41
71907;BME280;59781;52.090;5.030;2022-07-10T10:44:47;102677.91;;;22.18;52.19
71907;BME280;59781;52.090;5.030;2022-07-10T10:48:10;102680.16;;;23.37;49.84
71907;BME280;59781;52.090;5.030;2022-07-10T10:50:53;102686.28;;;23.26;49.22
71907;BME280;59781;52.090;5.030;2022-07-10T10:53:24;102682.69;;;23.12;49.92
71907;BME280;59781;52.090;5.030;2022-07-10T10:56:41;102678.44;;;23.16;49.83
71907;BME280;59781;52.090;5.030;2022-07-10T10:59:07;102684.19;;;22.47;50.16
71907;BME280;59781;52.090;5.030;2022-07-10T11:01:33;102688.09;;;22.24;52.34
71907;BME280;59781;52.090;5.030;2022-07-10T11:04:31;102677.97;;;22.31;51.65
71907;BME280;59781;52.090;5.030;2022-07-10T11:07:02;102679.47;;;22.95;51.21
71907;BME280;59781;52.090;5.030;2022-07-10T11:09:30;102678.44;;;23.09;51.05
71907;BME280;59781;52.090;5.030;2022-07-10T11:12:05;102673.34;;;22.93;50.73
71907;BME280;59781;52.090;5.030;2022-07-10T11:14:37;102685.66;;;23.24;51.04
71907;BME280;59781;52.090;5.030;2022-07-10T11:17:50;102672.50;;;22.99;50.53
71907;BME280;59781;52.090;5.030;2022-07-10T11:20:16;102669.25;;;22.76;50.08
71907;BME280;59781;52.090;5.030;2022-07-10T11:28:38;102671.59;;;22.18;54.79
71907;BME280;59781;52.090;5.030;2022-07-10T11:31:34;102665.31;;;23.84;49.23
71907;BME280;59781;52.090;5.030;2022-07-10T11:34:10;102664.50;;;23.37;51.11
71907;BME280;59781;52.090;5.030;2022-07-10T11:36:40;102664.50;;;23.04;50.76
71907;BME280;59781;52.090;5.030;2022-07-10T11:39:08;102672.13;;;23.35;48.78
71907;BME280;59781;52.090;5.030;2022-07-10T11:41:53;102664.91;;;23.54;48.76
71907;BME280;59781;52.090;5.030;2022-07-10T11:44:59;102661.16;;;22.48;49.27
71907;BME280;59781;52.090;5.030;2022-07-10T11:47:57;102671.13;;;22.08;49.40
71907;BME280;59781;52.090;5.030;2022-07-10T11:50:48;102657.81;;;22.52;50.52
71907;BME280;59781;52.090;5.030;2022-07-10T11:53:33;102652.22;;;23.00;48.07
71907;BME280;59781;52.090;5.030;2022-07-10T11:55:58;102655.59;;;23.48;46.58
71907;BME280;59781;52.090;5.030;2022-07-10T11:58:24;102639.13;;;24.40;46.35
71907;BME280;59781;52.090;5.030;2022-07-10T12:00:58;102656.00;;;23.92;46.87
71907;BME280;59781;52.090;5.030;2022-07-10T12:03:34;102647.56;;;23.80;48.09
71907;BME280;59781;52.090;5.030;2022-07-10T12:06:05;102639.28;;;24.45;45.62
71907;BME280;59781;52.090;5.030;2022-07-10T12:08:43;102636.75;;;24.81;44.81
71907;BME280;59781;52.090;5.030;2022-07-10T12:11:33;102639.63;;;24.93;43.04
71907;BME280;59781;52.090;5.030;2022-07-10T12:14:10;102631.78;;;24.14;44.45
71907;BME280;59781;52.090;5.030;2022-07-10T12:23:56;102634.81;;;24.82;42.81
71907;BME280;59781;52.090;5.030;2022-07-10T12:26:34;102635.22;;;24.54;44.25
71907;BME280;59781;52.090;5.030;2022-07-10T12:30:01;102641.47;;;24.23;45.03
71907;BME280;59781;52.090;5.030;2022-07-10T12:33:07;102627.88;;;24.28;44.09
71907;BME280;59781;52.090;5.030;2022-07-10T12:39:50;102645.41;;;23.89;45.44
71907;BME280;59781;52.090;5.030;2022-07-10T12:42:37;102634.88;;;23.53;45.09
71907;BME280;59781;52.090;5.030;2022-07-10T12:45:12;102629.72;;;24.47;45.70
71907;BME280;59781;52.090;5.030;2022-07-10T12:47:48;102632.06;;;23.92;45.34
71907;BME280;59781;52.090;5.030;2022-07-10T12:50:37;102639.34;;;23.60;45.36
71907;BME280;59781;52.090;5.030;2022-07-10T12:53:49;102633.00;;;23.27;46.54
71907;BME280;59781;52.090;5.030;2022-07-10T12:56:32;102635.94;;;23.45;47.39
71907;BME280;59781;52.090;5.030;2022-07-10T12:59:01;102635.13;;;24.29;45.22
71907;BME280;59781;52.090;5.030;2022-07-10T13:02:33;102631.31;;;24.23;46.90
71907;BME280;59781;52.090;5.030;2022-07-10T13:04:59;102629.19;;;24.70;44.71
71907;BME280;59781;52.090;5.030;2022-07-10T13:08:06;102633.00;;;24.18;50.18
71907;BME280;59781;52.090;5.030;2022-07-10T13:11:30;102635.94;;;23.25;50.00
71907;BME280;59781;52.090;5.030;2022-07-10T13:13:55;102636.78;;;23.52;48.14
71907;BME280;59781;52.090;5.030;2022-07-10T13:16:24;102634.66;;;23.54;50.08
71907;BME280;59781;52.090;5.030;2022-07-10T13:18:50;102634.03;;;23.65;50.66
71907;BME280;59781;52.090;5.030;2022-07-10T13:21:16;102637.41;;;23.81;50.94
71907;BME280;59781;52.090;5.030;2022-07-10T13:23:42;102632.22;;;24.04;48.72
71907;BME280;59781;52.090;5.030;2022-07-10T13:26:08;102627.97;;;24.08;49.30
71907;BME280;59781;52.090;5.030;2022-07-10T13:28:34;102626.19;;;23.69;49.85
71907;BME280;59781;52.090;5.030;2022-07-10T13:31:00;102636.78;;;23.59;49.43
71907;BME280;59781;52.090;5.030;2022-07-10T13:33:26;102629.19;;;23.28;50.87
71907;BME280;59781;52.090;5.030;2022-07-10T13:40:07;102634.03;;;22.93;51.75
71907;BME280;59781;52.090;5.030;2022-07-10T13:46:57;102630.44;;;23.52;51.99
71907;BME280;59781;52.090;5.030;2022-07-10T14:05:38;102616.91;;;23.43;51.38
71907;BME280;59781;52.090;5.030;2022-07-10T14:08:04;102624.94;;;23.52;53.23
71907;BME280;59781;52.090;5.030;2022-07-10T14:11:43;102619.03;;;23.22;52.52
71907;BME280;59781;52.090;5.030;2022-07-10T14:14:29;102617.56;;;23.32;52.83
71907;BME280;59781;52.090;5.030;2022-07-10T14:16:55;102613.34;;;23.23;53.33
71907;BME280;59781;52.090;5.030;2022-07-10T14:20:02;102625.16;;;22.97;54.73
71907;BME280;59781;52.090;5.030;2022-07-10T14:23:45;102619.66;;;22.90;54.15
71907;BME280;59781;52.090;5.030;2022-07-10T14:26:15;102619.88;;;23.29;53.44
71907;BME280;59781;52.090;5.030;2022-07-10T14:33:45;102623.44;;;23.49;53.31
71907;BME280;59781;52.090;5.030;2022-07-10T14:37:40;102612.91;;;23.13;53.21
71907;BME280;59781;52.090;5.030;2022-07-10T15:02:56;102599.50;;;23.76;52.93
71907;BME280;59781;52.090;5.030;2022-07-10T15:09:36;102596.38;;;23.53;53.04